sensor_id;sensor_type;location;lat;lon;timestamp;pressure;altitude;pressure_sealevel;temperature;humidity
32109;BME280;18624;50.042;8.436;2024-03-17T00:01:38;101311.38;;;9.00;100.00
32109;BME280;18624;50.042;8.436;2024-03-17T00:04:06;101179.22;;;8.15;100.00
32109;BME280;18624;50.042;8.436;2024-03-17T00:06:32;101305.16;;;8.96;100.00
32109;BME280;18624;50.042;8.436;2024-03-17T00:08:58;101305.16;;;8.96;100.00
32109;BME280;18624;50.042;8.436;2024-03-17T00:11:24;101299.72;;;8.92;100.00
32109;BME280;18624;50.042;8.436;2024-03-17T00:13:49;101302.84;;;8.83;100.00
32109;BME280;18624;50.042;8.436;2024-03-17T00:16:15;101302.47;;;8.71;100.00
32109;BME280;18624;50.042;8.436;2024-03-17T00:18:44;101302.84;;;8.73;100.00
32109;BME280;18624;50.042;8.436;2024-03-17T00:21:12;101328.25;;;8.70;100.00
32109;BME280;18624;50.042;8.436;2024-03-17T00:23:38;101304.03;;;8.68;100.00
32109;BME280;18624;50.042;8.436;2024-03-17T00:26:04;101300.94;;;8.70;100.00
32109;BME280;18624;50.042;8.436;2024-03-17T00:28:29;101304.84;;;8.65;100.00
32109;BME280;18624;50.042;8.436;2024-03-17T00:30:55;101306.38;;;8.62;100.00
32109;BME280;18624;50.042;8.436;2024-03-17T00:33:20;101306.38;;;8.62;100.00
32109;BME280;18624;50.042;8.436;2024-03-17T00:35:46;101295.06;;;8.64;100.00
32109;BME280;18624;50.042;8.436;2024-03-17T00:38:11;101295.47;;;8.62;100.00
32109;BME280;18624;50.042;8.436;2024-03-17T00:40:38;101286.88;;;8.60;100.00
32109;BME280;18624;50.042;8.436;2024-03-17T00:43:04;101289.63;;;8.57;100.00
32109;BME280;18624;50.042;8.436;2024-03-17T00:45:29;101289.22;;;8.55;100.00
32109;BME280;18624;50.042;8.436;2024-03-17T00:47:55;101276.72;;;8.54;100.00
32109;BME280;18624;50.042;8.436;2024-03-17T00:50:20;101275.16;;;8.53;100.00
32109;BME280;18624;50.042;8.436;2024-03-17T00:52:46;101295.06;;;8.53;100.00
32109;BME280;18624;50.042;8.436;2024-03-17T00:55:11;101151.53;;;7.70;100.00
32109;BME280;18624;50.042;8.436;2024-03-17T00:57:39;101277.91;;;8.53;100.00
32109;BME280;18624;50.042;8.436;2024-03-17T01:00:06;101253.72;;;8.44;100.00
32109;BME280;18624;50.042;8.436;2024-03-17T01:02:31;101268.53;;;8.50;100.00
32109;BME280;18624;50.042;8.436;2024-03-17T01:04:57;101266.97;;;8.49;100.00
32109;BME280;18624;50.042;8.436;2024-03-17T01:07:22;101270.88;;;8.48;100.00
32109;BME280;18624;50.042;8.436;2024-03-17T01:09:48;101266.19;;;8.45;100.00
32109;BME280;18624;50.042;8.436;2024-03-17T01:12:14;101258.41;;;8.44;100.00
32109;BME280;18624;50.042;8.436;2024-03-17T01:14:39;101257.22;;;8.41;100.00
32109;BME280;18624;50.042;8.436;2024-03-17T01:17:05;101256.44;;;8.41;100.00
32109;BME280;18624;50.042;8.436;2024-03-17T01:19:32;101251.78;;;8.38;100.00
32109;BME280;18624;50.042;8.436;2024-03-17T01:21:59;101249.03;;;8.34;100.00
32109;BME280;18624;50.042;8.436;2024-03-17T01:24:25;101244.72;;;8.29;100.00
32109;BME280;18624;50.042;8.436;2024-03-17T01:26:51;101246.28;;;8.27;100.00
32109;BME280;18624;50.042;8.436;2024-03-17T01:29:16;101244.31;;;8.24;100.00
32109;BME280;18624;50.042;8.436;2024-03-17T01:31:42;101245.50;;;8.19;100.00
32109;BME280;18624;50.042;8.436;2024-03-17T01:34:07;101232.25;;;8.14;100.00
32109;BME280;18624;50.042;8.436;2024-03-17T01:36:33;101226.00;;;8.03;100.00
32109;BME280;18624;50.042;8.436;2024-03-17T01:38:59;101234.22;;;8.06;100.00
32109;BME280;18624;50.042;8.436;2024-03-17T01:41:25;101236.53;;;8.01;100.00
32109;BME280;18624;50.042;8.436;2024-03-17T01:43:50;101232.63;;;7.95;100.00
32109;BME280;18624;50.042;8.436;2024-03-17T01:46:16;101227.56;;;7.86;100.00
32109;BME280;18624;50.042;8.436;2024-03-17T01:48:43;101220.94;;;7.80;100.00
32109;BME280;18624;50.042;8.436;2024-03-17T01:51:10;101222.09;;;7.72;100.00
32109;BME280;18624;50.042;8.436;2024-03-17T01:53:37;101193.59;;;7.51;100.00
32109;BME280;18624;50.042;8.436;2024-03-17T01:56:05;101219.38;;;7.72;100.00
32109;BME280;18624;50.042;8.436;2024-03-17T01:58:31;101212.75;;;7.66;100.00
32109;BME280;18624;50.042;8.436;2024-03-17T02:00:57;101171.38;;;7.35;100.00
32109;BME280;18624;50.042;8.436;2024-03-17T02:03:22;101131.94;;;7.00;100.00
32109;BME280;18624;50.042;8.436;2024-03-17T02:05:48;101197.50;;;7.43;100.00
32109;BME280;18624;50.042;8.436;2024-03-17T02:08:14;101197.09;;;7.41;100.00
32109;BME280;18624;50.042;8.436;2024-03-17T02:10:39;101212.31;;;7.53;100.00
32109;BME280;18624;50.042;8.436;2024-03-17T02:13:05;101215.03;;;7.49;100.00
32109;BME280;18624;50.042;8.436;2024-03-17T02:15:34;101212.72;;;7.48;100.00
32109;BME280;18624;50.042;8.436;2024-03-17T02:18:00;101215.41;;;7.44;100.00
32109;BME280;18624;50.042;8.436;2024-03-17T02:20:25;101198.66;;;7.42;100.00
32109;BME280;18624;50.042;8.436;2024-03-17T02:23:10;101199.03;;;7.37;100.00
32109;BME280;18624;50.042;8.436;2024-03-17T02:25:36;101196.28;;;7.33;100.00
32109;BME280;18624;50.042;8.436;2024-03-17T02:28:02;101193.56;;;7.30;100.00
32109;BME280;18624;50.042;8.436;2024-03-17T02:30:28;101194.34;;;7.27;100.00
32109;BME280;18624;50.042;8.436;2024-03-17T02:32:54;101200.56;;;7.24;100.00
32109;BME280;18624;50.042;8.436;2024-03-17T02:35:24;101197.81;;;7.20;100.00
32109;BME280;18624;50.042;8.436;2024-03-17T02:37:49;101156.81;;;6.88;100.00
32109;BME280;18624;50.042;8.436;2024-03-17T02:40:15;101196.25;;;7.12;100.00
32109;BME280;18624;50.042;8.436;2024-03-17T02:42:42;101189.59;;;7.09;100.00
32109;BME280;18624;50.042;8.436;2024-03-17T02:45:10;101188.03;;;7.05;100.00
32109;BME280;18624;50.042;8.436;2024-03-17T02:47:37;101187.25;;;7.01;100.00
32109;BME280;18624;50.042;8.436;2024-03-17T02:50:03;101180.63;;;6.98;100.00
32109;BME280;18624;50.042;8.436;2024-03-17T02:52:29;101188.78;;;6.95;100.00
32109;BME280;18624;50.042;8.436;2024-03-17T02:54:55;101179.00;;;6.87;100.00
32109;BME280;18624;50.042;8.436;2024-03-17T02:57:22;101179.78;;;6.87;100.00
32109;BME280;18624;50.042;8.436;2024-03-17T02:59:50;101173.94;;;6.81;100.00
32109;BME280;18624;50.042;8.436;2024-03-17T03:02:17;101176.25;;;6.79;100.00
32109;BME280;18624;50.042;8.436;2024-03-17T03:04:43;101139.53;;;6.45;100.00
32109;BME280;18624;50.042;8.436;2024-03-17T03:07:08;101186.72;;;6.67;100.00
32109;BME280;18624;50.042;8.436;2024-03-17T03:09:34;101182.41;;;6.58;100.00
32109;BME280;18624;50.042;8.436;2024-03-17T03:12:00;101183.16;;;6.55;100.00
32109;BME280;18624;50.042;8.436;2024-03-17T03:14:28;101186.25;;;6.50;100.00
32109;BME280;18624;50.042;8.436;2024-03-17T03:16:54;101188.53;;;6.48;100.00
32109;BME280;18624;50.042;8.436;2024-03-17T03:19:19;101193.22;;;6.48;100.00
32109;BME280;18624;50.042;8.436;2024-03-17T03:21:45;101192.03;;;6.45;100.00
32109;BME280;18624;50.042;8.436;2024-03-17T03:24:11;101176.41;;;6.31;100.00
32109;BME280;18624;50.042;8.436;2024-03-17T03:26:37;101184.59;;;6.35;100.00
32109;BME280;18624;50.042;8.436;2024-03-17T03:29:04;101179.50;;;6.33;100.00
32109;BME280;18624;50.042;8.436;2024-03-17T03:31:31;101167.00;;;6.25;100.00
32109;BME280;18624;50.042;8.436;2024-03-17T03:33:57;101108.38;;;5.80;100.00
32109;BME280;18624;50.042;8.436;2024-03-17T03:36:22;101186.88;;;6.29;100.00
32109;BME280;18624;50.042;8.436;2024-03-17T03:38:48;101189.56;;;6.26;100.00
32109;BME280;18624;50.042;8.436;2024-03-17T03:41:15;101187.22;;;6.21;100.00
32109;BME280;18624;50.042;8.436;2024-03-17T03:43:42;101198.09;;;6.17;100.00
32109;BME280;18624;50.042;8.436;2024-03-17T03:46:08;101198.09;;;6.17;100.00
32109;BME280;18624;50.042;8.436;2024-03-17T03:48:34;101212.44;;;6.14;100.00
32109;BME280;18624;50.042;8.436;2024-03-17T03:51:07;101196.88;;;6.11;100.00
32109;BME280;18624;50.042;8.436;2024-03-17T03:53:33;101191.81;;;6.09;100.00
32109;BME280;18624;50.042;8.436;2024-03-17T03:56:00;101197.66;;;6.12;100.00
32109;BME280;18624;50.042;8.436;2024-03-17T03:58:35;101196.13;;;6.14;100.00
32109;BME280;18624;50.042;8.436;2024-03-17T04:01:08;101195.34;;;6.14;100.00
32109;BME280;18624;50.042;8.436;2024-03-17T04:03:34;101196.09;;;6.11;100.00
32109;BME280;18624;50.042;8.436;2024-03-17T04:06:05;101206.22;;;6.14;100.00
32109;BME280;18624;50.042;8.436;2024-03-17T04:08:32;101202.34;;;6.15;100.00
32109;BME280;18624;50.042;8.436;2024-03-17T04:10:58;101207.41;;;6.13;100.00
32109;BME280;18624;50.042;8.436;2024-03-17T04:13:23;101212.41;;;6.11;100.00
32109;BME280;18624;50.042;8.436;2024-03-17T04:15:49;101210.88;;;6.09;100.00
32109;BME280;18624;50.042;8.436;2024-03-17T04:18:15;101189.34;;;5.94;100.00
32109;BME280;18624;50.042;8.436;2024-03-17T04:20:43;101201.44;;;5.96;100.00
32109;BME280;18624;50.042;8.436;2024-03-17T04:23:08;101217.44;;;6.05;100.00
32109;BME280;18624;50.042;8.436;2024-03-17T04:25:34;101214.69;;;6.01;100.00
32109;BME280;18624;50.042;8.436;2024-03-17T04:28:00;101211.16;;;5.97;100.00
32109;BME280;18624;50.042;8.436;2024-03-17T04:30:25;101209.16;;;5.94;100.00
32109;BME280;18624;50.042;8.436;2024-03-17T04:32:51;101211.88;;;5.94;100.00
32109;BME280;18624;50.042;8.436;2024-03-17T04:35:17;101194.28;;;5.81;100.00
32109;BME280;18624;50.042;8.436;2024-03-17T04:37:43;101205.59;;;5.87;100.00
32109;BME280;18624;50.042;8.436;2024-03-17T04:40:09;101205.19;;;5.84;100.00
32109;BME280;18624;50.042;8.436;2024-03-17T04:42:35;101205.94;;;5.85;100.00
32109;BME280;18624;50.042;8.436;2024-03-17T04:45:01;101186.03;;;5.74;100.00
32109;BME280;18624;50.042;8.436;2024-03-17T04:47:26;101204.03;;;5.86;100.00
32109;BME280;18624;50.042;8.436;2024-03-17T04:49:52;101215.28;;;5.84;100.00
32109;BME280;18624;50.042;8.436;2024-03-17T04:52:18;101211.00;;;5.83;100.00
32109;BME280;18624;50.042;8.436;2024-03-17T04:54:43;101207.50;;;5.82;100.00
32109;BME280;18624;50.042;8.436;2024-03-17T04:57:09;101160.97;;;5.50;100.00
32109;BME280;18624;50.042;8.436;2024-03-17T04:59:35;101218.34;;;5.79;100.00
32109;BME280;18624;50.042;8.436;2024-03-17T05:02:01;101198.47;;;5.75;100.00
32109;BME280;18624;50.042;8.436;2024-03-17T05:04:28;101207.88;;;5.81;100.00
32109;BME280;18624;50.042;8.436;2024-03-17T05:06:53;101207.88;;;5.81;100.00
32109;BME280;18624;50.042;8.436;2024-03-17T05:09:19;101173.88;;;5.61;100.00
32109;BME280;18624;50.042;8.436;2024-03-17T05:11:46;101211.00;;;5.83;100.00
32109;BME280;18624;50.042;8.436;2024-03-17T05:14:12;101210.63;;;5.84;100.00
32109;BME280;18624;50.042;8.436;2024-03-17T05:16:38;101205.59;;;5.87;100.00
32109;BME280;18624;50.042;8.436;2024-03-17T05:19:03;101201.63;;;5.80;100.00
32109;BME280;18624;50.042;8.436;2024-03-17T05:21:30;101195.41;;;5.80;100.00
32109;BME280;18624;50.042;8.436;2024-03-17T05:23:56;101209.09;;;5.87;100.00
32109;BME280;18624;50.042;8.436;2024-03-17T05:26:25;101207.16;;;5.88;100.00
32109;BME280;18624;50.042;8.436;2024-03-17T05:28:50;101197.41;;;5.83;100.00
32109;BME280;18624;50.042;8.436;2024-03-17T05:31:16;101200.53;;;5.89;100.00
32109;BME280;18624;50.042;8.436;2024-03-17T05:33:43;101199.38;;;5.90;100.00
32109;BME280;18624;50.042;8.436;2024-03-17T05:36:09;101194.28;;;5.84;100.00
32109;BME280;18624;50.042;8.436;2024-03-17T05:38:35;101201.38;;;5.93;100.00
32109;BME280;18624;50.042;8.436;2024-03-17T05:41:08;101207.66;;;5.97;100.00
32109;BME280;18624;50.042;8.436;2024-03-17T05:43:36;101204.19;;;6.00;100.00
32109;BME280;18624;50.042;8.436;2024-03-17T05:46:03;101215.09;;;6.03;100.00
32109;BME280;18624;50.042;8.436;2024-03-17T05:48:32;101217.06;;;6.06;100.00
32109;BME280;18624;50.042;8.436;2024-03-17T05:51:00;101213.19;;;6.11;100.00
32109;BME280;18624;50.042;8.436;2024-03-17T05:53:26;101207.41;;;6.13;100.00
32109;BME280;18624;50.042;8.436;2024-03-17T05:55:52;101210.13;;;6.16;100.00
32109;BME280;18624;50.042;8.436;2024-03-17T05:58:17;101204.72;;;6.20;100.00
32109;BME280;18624;50.042;8.436;2024-03-17T06:00:43;101203.13;;;6.15;100.00
32109;BME280;18624;50.042;8.436;2024-03-17T06:03:09;101210.44;;;6.04;100.00
32109;BME280;18624;50.042;8.436;2024-03-17T06:05:36;101200.28;;;6.01;100.00
32109;BME280;18624;50.042;8.436;2024-03-17T06:08:03;101210.44;;;6.07;100.00
32109;BME280;18624;50.042;8.436;2024-03-17T06:10:31;101198.06;;;6.14;100.00
32109;BME280;18624;50.042;8.436;2024-03-17T06:12:57;101202.41;;;6.22;100.00
32109;BME280;18624;50.042;8.436;2024-03-17T06:15:23;101195.44;;;6.28;100.00
32109;BME280;18624;50.042;8.436;2024-03-17T06:17:49;101199.34;;;6.30;100.00
32109;BME280;18624;50.042;8.436;2024-03-17T06:20:21;101196.56;;;6.23;100.00
32109;BME280;18624;50.042;8.436;2024-03-17T06:22:47;101203.59;;;6.28;100.00
32109;BME280;18624;50.042;8.436;2024-03-17T06:25:16;101193.53;;;6.32;100.00
32109;BME280;18624;50.042;8.436;2024-03-17T06:27:42;101192.38;;;6.37;100.00
32109;BME280;18624;50.042;8.436;2024-03-17T06:30:17;101188.50;;;6.38;100.00
32109;BME280;18624;50.042;8.436;2024-03-17T06:32:44;101179.41;;;6.16;100.00
32109;BME280;18624;50.042;8.436;2024-03-17T06:35:14;101200.09;;;6.27;100.00
32109;BME280;18624;50.042;8.436;2024-03-17T06:37:44;101195.47;;;6.31;100.00
32109;BME280;18624;50.042;8.436;2024-03-17T06:40:14;101173.56;;;6.14;100.00
32109;BME280;18624;50.042;8.436;2024-03-17T06:42:41;101191.03;;;6.09;100.00
32109;BME280;18624;50.042;8.436;2024-03-17T06:45:07;101188.56;;;5.93;100.00
32109;BME280;18624;50.042;8.436;2024-03-17T06:47:37;101194.16;;;6.11;100.00
32109;BME280;18624;50.042;8.436;2024-03-17T06:50:04;101192.28;;;6.22;100.00
32109;BME280;18624;50.042;8.436;2024-03-17T06:52:29;101190.38;;;6.26;100.00
32109;BME280;18624;50.042;8.436;2024-03-17T06:54:56;101195.38;;;6.21;100.00
32109;BME280;18624;50.042;8.436;2024-03-17T06:57:23;101200.44;;;6.19;100.00
32109;BME280;18624;50.042;8.436;2024-03-17T06:59:49;101191.78;;;6.06;100.00
32109;BME280;18624;50.042;8.436;2024-03-17T07:02:14;101182.75;;;5.98;100.00
32109;BME280;18624;50.042;8.436;2024-03-17T07:04:43;101168.28;;;5.87;100.00
32109;BME280;18624;50.042;8.436;2024-03-17T07:07:09;101053.00;;;5.06;100.00
32109;BME280;18624;50.042;8.436;2024-03-17T07:09:35;101175.25;;;5.81;100.00
32109;BME280;18624;50.042;8.436;2024-03-17T07:12:00;101192.84;;;5.94;100.00
32109;BME280;18624;50.042;8.436;2024-03-17T07:14:26;101194.09;;;6.04;100.00
32109;BME280;18624;50.042;8.436;2024-03-17T07:16:53;101192.66;;;6.21;100.00
32109;BME280;18624;50.042;8.436;2024-03-17T07:19:18;101188.38;;;6.20;100.00
32109;BME280;18624;50.042;8.436;2024-03-17T07:21:44;101188.78;;;6.25;100.00
32109;BME280;18624;50.042;8.436;2024-03-17T07:24:10;101151.22;;;5.90;100.00
32109;BME280;18624;50.042;8.436;2024-03-17T07:26:35;101184.13;;;6.22;100.00
32109;BME280;18624;50.042;8.436;2024-03-17T07:29:01;101187.69;;;6.33;100.00
32109;BME280;18624;50.042;8.436;2024-03-17T07:31:26;101190.94;;;6.53;100.00
32109;BME280;18624;50.042;8.436;2024-03-17T07:33:52;101193.69;;;6.60;100.00
32109;BME280;18624;50.042;8.436;2024-03-17T07:36:17;101171.50;;;6.58;100.00
32109;BME280;18624;50.042;8.436;2024-03-17T07:38:43;101195.69;;;6.74;100.00
32109;BME280;18624;50.042;8.436;2024-03-17T07:41:09;101185.16;;;6.69;100.00
32109;BME280;18624;50.042;8.436;2024-03-17T07:43:36;101192.63;;;6.83;100.00
32109;BME280;18624;50.042;8.436;2024-03-17T07:46:07;101180.59;;;6.95;100.00
32109;BME280;18624;50.042;8.436;2024-03-17T07:48:35;101177.09;;;6.98;100.00
32109;BME280;18624;50.042;8.436;2024-03-17T07:51:06;101179.50;;;7.14;100.00
32109;BME280;18624;50.042;8.436;2024-03-17T07:53:36;101182.66;;;7.30;100.00
32109;BME280;18624;50.042;8.436;2024-03-17T07:56:07;101172.94;;;7.50;100.00
32109;BME280;18624;50.042;8.436;2024-03-17T07:58:35;101168.66;;;7.56;100.00
32109;BME280;18624;50.042;8.436;2024-03-17T08:03:34;101187.81;;;7.89;100.00
32109;BME280;18624;50.042;8.436;2024-03-17T08:06:01;101173.75;;;7.94;100.00
32109;BME280;18624;50.042;8.436;2024-03-17T08:08:28;101187.00;;;8.09;100.00
32109;BME280;18624;50.042;8.436;2024-03-17T08:10:53;101183.09;;;8.18;100.00
32109;BME280;18624;50.042;8.436;2024-03-17T08:13:21;101179.97;;;8.12;100.00
32109;BME280;18624;50.042;8.436;2024-03-17T08:15:55;101179.56;;;8.10;100.00
32109;BME280;18624;50.042;8.436;2024-03-17T08:18:21;101185.44;;;8.16;100.00
32109;BME280;18624;50.042;8.436;2024-03-17T08:20:46;101191.28;;;8.21;100.00
32109;BME280;18624;50.042;8.436;2024-03-17T08:23:13;101201.81;;;8.26;100.00
32109;BME280;18624;50.042;8.436;2024-03-17T08:25:38;101196.75;;;8.21;100.00
32109;BME280;18624;50.042;8.436;2024-03-17T08:28:04;101193.59;;;8.19;100.00
32109;BME280;18624;50.042;8.436;2024-03-17T08:30:30;101187.00;;;8.09;100.00
32109;BME280;18624;50.042;8.436;2024-03-17T08:32:56;101197.13;;;8.23;100.00
32109;BME280;18624;50.042;8.436;2024-03-17T08:35:22;101187.78;;;8.21;100.00
32109;BME280;18624;50.042;8.436;2024-03-17T08:37:48;101190.09;;;8.29;100.00
32109;BME280;18624;50.042;8.436;2024-03-17T08:40:14;101197.91;;;8.34;100.00
32109;BME280;18624;50.042;8.436;2024-03-17T08:42:40;101184.25;;;8.34;100.00
32109;BME280;18624;50.042;8.436;2024-03-17T08:45:06;101189.31;;;8.43;100.00
32109;BME280;18624;50.042;8.436;2024-03-17T08:47:32;101183.09;;;8.43;100.00
32109;BME280;18624;50.042;8.436;2024-03-17T08:49:57;101174.91;;;8.39;100.00
32109;BME280;18624;50.042;8.436;2024-03-17T08:52:23;101179.94;;;8.48;100.00
32109;BME280;18624;50.042;8.436;2024-03-17T08:54:49;101175.63;;;8.50;100.00
32109;BME280;18624;50.042;8.436;2024-03-17T08:57:17;101160.00;;;8.61;100.00
32109;BME280;18624;50.042;8.436;2024-03-17T08:59:46;101163.44;;;8.76;100.00
32109;BME280;18624;50.042;8.436;2024-03-17T09:02:13;101159.50;;;8.84;100.00
32109;BME280;18624;50.042;8.436;2024-03-17T09:04:42;101156.34;;;8.93;100.00
32109;BME280;18624;50.042;8.436;2024-03-17T09:07:08;101163.34;;;9.01;100.00
32109;BME280;18624;50.042;8.436;2024-03-17T09:09:33;101155.84;;;9.12;100.00
32109;BME280;18624;50.042;8.436;2024-03-17T09:11:59;101161.69;;;9.18;100.00
32109;BME280;18624;50.042;8.436;2024-03-17T09:14:25;101144.91;;;9.12;100.00
32109;BME280;18624;50.042;8.436;2024-03-17T09:16:50;101137.91;;;9.04;100.00
32109;BME280;18624;50.042;8.436;2024-03-17T09:19:16;101157.38;;;9.21;100.00
32109;BME280;18624;50.042;8.436;2024-03-17T09:21:41;101160.47;;;9.23;100.00
32109;BME280;18624;50.042;8.436;2024-03-17T09:24:08;101156.59;;;9.24;100.00
32109;BME280;18624;50.042;8.436;2024-03-17T09:26:34;101161.28;;;9.20;100.00
32109;BME280;18624;50.042;8.436;2024-03-17T09:29:00;101157.38;;;9.21;100.00
32109;BME280;18624;50.042;8.436;2024-03-17T09:31:25;101157.00;;;9.19;100.00
32109;BME280;18624;50.042;8.436;2024-03-17T09:33:51;101159.34;;;9.20;100.00
32109;BME280;18624;50.042;8.436;2024-03-17T09:36:17;101158.13;;;9.25;100.00
32109;BME280;18624;50.042;8.436;2024-03-17T09:38:44;101160.47;;;9.26;100.00
32109;BME280;18624;50.042;8.436;2024-03-17T09:41:23;101154.56;;;9.31;99.19
32109;BME280;18624;50.042;8.436;2024-03-17T09:43:53;101154.97;;;9.33;100.00
32109;BME280;18624;50.042;8.436;2024-03-17T09:46:19;101161.97;;;9.34;99.95
32109;BME280;18624;50.042;8.436;2024-03-17T09:48:46;101155.69;;;9.41;99.15
32109;BME280;18624;50.042;8.436;2024-03-17T09:51:19;101149.03;;;9.46;98.40
32109;BME280;18624;50.042;8.436;2024-03-17T09:53:46;101143.94;;;9.44;100.00
32109;BME280;18624;50.042;8.436;2024-03-17T09:56:14;101148.97;;;9.49;100.00
32109;BME280;18624;50.042;8.436;2024-03-17T09:58:53;101142.28;;;9.54;100.00
32109;BME280;18624;50.042;8.436;2024-03-17T10:01:19;101129.06;;;9.45;99.00
32109;BME280;18624;50.042;8.436;2024-03-17T10:03:49;101139.16;;;9.55;95.76
32109;BME280;18624;50.042;8.436;2024-03-17T10:06:21;101138.75;;;9.57;96.69
32109;BME280;18624;50.042;8.436;2024-03-17T10:08:52;101137.56;;;9.61;96.50
32109;BME280;18624;50.042;8.436;2024-03-17T10:11:23;101126.94;;;9.67;94.00
32109;BME280;18624;50.042;8.436;2024-03-17T10:14:18;101135.94;;;9.68;93.83
32109;BME280;18624;50.042;8.436;2024-03-17T10:16:44;101142.94;;;9.72;92.44
32109;BME280;18624;50.042;8.436;2024-03-17T10:19:24;101137.03;;;9.77;91.58
32109;BME280;18624;50.042;8.436;2024-03-17T10:21:58;101142.47;;;9.81;91.13
32109;BME280;18624;50.042;8.436;2024-03-17T10:24:25;101141.25;;;9.85;89.99
32109;BME280;18624;50.042;8.436;2024-03-17T10:29:31;101131.44;;;9.92;87.18
32109;BME280;18624;50.042;8.436;2024-03-17T10:32:13;101129.47;;;9.92;88.66
32109;BME280;18624;50.042;8.436;2024-03-17T10:34:39;101131.03;;;9.93;90.08
32109;BME280;18624;50.042;8.436;2024-03-17T10:39:42;101132.53;;;9.98;87.97
32109;BME280;18624;50.042;8.436;2024-03-17T10:42:10;100991.00;;;9.08;88.87
32109;BME280;18624;50.042;8.436;2024-03-17T10:44:40;101135.25;;;10.01;88.05
32109;BME280;18624;50.042;8.436;2024-03-17T10:47:07;101138.00;;;10.01;87.93
32109;BME280;18624;50.042;8.436;2024-03-17T10:49:39;101134.84;;;10.03;89.73
32109;BME280;18624;50.042;8.436;2024-03-17T10:52:06;101129.69;;;10.08;89.32
32109;BME280;18624;50.042;8.436;2024-03-17T10:54:34;101130.84;;;10.11;89.05
32109;BME280;18624;50.042;8.436;2024-03-17T10:59:48;101113.25;;;10.08;90.64
32109;BME280;18624;50.042;8.436;2024-03-17T11:02:23;101118.22;;;10.21;90.36
32109;BME280;18624;50.042;8.436;2024-03-17T11:04:54;101116.63;;;10.27;91.41
32109;BME280;18624;50.042;8.436;2024-03-17T11:07:21;101116.97;;;10.32;91.08
32109;BME280;18624;50.042;8.436;2024-03-17T11:09:48;101132.19;;;10.37;90.89
32109;BME280;18624;50.042;8.436;2024-03-17T11:12:43;101116.06;;;10.43;91.86
32109;BME280;18624;50.042;8.436;2024-03-17T11:17:51;101115.53;;;10.55;90.20
32109;BME280;18624;50.042;8.436;2024-03-17T11:20:21;101110.78;;;10.59;87.77
32109;BME280;18624;50.042;8.436;2024-03-17T11:22:51;101101.41;;;10.56;88.37
32109;BME280;18624;50.042;8.436;2024-03-17T11:28:00;101106.38;;;10.65;87.71
32109;BME280;18624;50.042;8.436;2024-03-17T11:46:59;101095.38;;;10.99;88.78
32109;BME280;18624;50.042;8.436;2024-03-17T11:49:30;101089.81;;;11.03;90.23
32109;BME280;18624;50.042;8.436;2024-03-17T11:51:57;101089.41;;;11.04;89.44
32109;BME280;18624;50.042;8.436;2024-03-17T11:54:30;101082.00;;;11.01;89.14
32109;BME280;18624;50.042;8.436;2024-03-17T11:57:04;101083.41;;;11.13;88.98
32109;BME280;18624;50.042;8.436;2024-03-17T11:59:31;101087.28;;;11.15;88.86
32109;BME280;18624;50.042;8.436;2024-03-17T12:01:57;101070.97;;;11.05;88.09
32109;BME280;18624;50.042;8.436;2024-03-17T12:04:23;101086.50;;;11.15;88.03
32109;BME280;18624;50.042;8.436;2024-03-17T12:06:51;101074.31;;;11.16;88.87
32109;BME280;18624;50.042;8.436;2024-03-17T12:09:25;101075.78;;;11.24;89.35
32109;BME280;18624;50.042;8.436;2024-03-17T12:12:09;101086.34;;;11.26;87.69
32109;BME280;18624;50.042;8.436;2024-03-17T12:14:36;101074.91;;;11.31;87.16
32109;BME280;18624;50.042;8.436;2024-03-17T12:17:04;101062.72;;;11.32;87.16
32109;BME280;18624;50.042;8.436;2024-03-17T12:19:30;101040.16;;;11.21;87.04
32109;BME280;18624;50.042;8.436;2024-03-17T12:21:57;101073.50;;;11.43;87.19
32109;BME280;18624;50.042;8.436;2024-03-17T12:24:25;101067.91;;;11.50;88.37
32109;BME280;18624;50.042;8.436;2024-03-17T12:26:52;101068.63;;;11.54;87.88
32109;BME280;18624;50.042;8.436;2024-03-17T12:31:47;101064.97;;;11.60;87.58
32109;BME280;18624;50.042;8.436;2024-03-17T12:34:13;101055.19;;;11.59;87.28
32109;BME280;18624;50.042;8.436;2024-03-17T12:36:39;101053.94;;;11.64;88.74
32109;BME280;18624;50.042;8.436;2024-03-17T12:39:32;101044.03;;;11.70;87.66
32109;BME280;18624;50.042;8.436;2024-03-17T12:42:02;101047.97;;;11.69;88.00
32109;BME280;18624;50.042;8.436;2024-03-17T12:44:29;101047.19;;;11.69;87.63
32109;BME280;18624;50.042;8.436;2024-03-17T12:46:58;101038.53;;;11.70;87.74
32109;BME280;18624;50.042;8.436;2024-03-17T12:49:28;101039.72;;;11.69;86.86
32109;BME280;18624;50.042;8.436;2024-03-17T12:51:54;101045.59;;;11.71;86.59
32109;BME280;18624;50.042;8.436;2024-03-17T12:54:24;101038.13;;;11.72;87.08
32109;BME280;18624;50.042;8.436;2024-03-17T12:56:51;101034.94;;;11.73;88.00
32109;BME280;18624;50.042;8.436;2024-03-17T12:59:39;101030.22;;;11.74;88.44
32109;BME280;18624;50.042;8.436;2024-03-17T13:02:24;101027.84;;;11.76;88.55
32109;BME280;18624;50.042;8.436;2024-03-17T13:05:18;101023.53;;;11.75;87.73
32109;BME280;18624;50.042;8.436;2024-03-17T13:07:44;101016.44;;;11.77;88.32
32109;BME280;18624;50.042;8.436;2024-03-17T13:10:13;101010.88;;;11.81;89.69
32109;BME280;18624;50.042;8.436;2024-03-17T13:12:38;101008.88;;;11.85;89.08
32109;BME280;18624;50.042;8.436;2024-03-17T13:15:04;101007.69;;;11.86;89.42
32109;BME280;18624;50.042;8.436;2024-03-17T13:17:30;101000.63;;;11.85;88.51
32109;BME280;18624;50.042;8.436;2024-03-17T13:19:58;100991.19;;;11.86;88.13
32109;BME280;18624;50.042;8.436;2024-03-17T13:22:24;100961.72;;;11.66;88.85
32109;BME280;18624;50.042;8.436;2024-03-17T13:24:50;100984.97;;;11.82;89.47
32109;BME280;18624;50.042;8.436;2024-03-17T13:27:16;100980.28;;;11.82;88.91